KPHT/PHT METAR and TAF weather

Enter ICAO airport designator
Station Type Date Time Source
KPHT METAR 2023/01/30 11:55 UTC NOAA

KPHT 301155Z AUTO 35004KT 1 1/2SM BR OVC003 02/02 A3020 RMK A01


Station Type Date Time Source
KPHT Decoded METAR 2023/01/30 11:55 UTC NOAA

Station name not available
Jan 30, 2023 - 06:55 AM EST / 2023.01.30 1155 UTC
Wind: from the N (350 degrees) at 5 MPH (4 KT):0
Visibility: 1 1/2 mile(s):0
Sky conditions: overcast
Weather: mist
Temperature: 35 F (2 C)
Windchill: 30 F (-1 C):1
Dew Point: 35 F (2 C)
Relative Humidity: 100%
Pressure (altimeter): 30.2 in. Hg (1022 hPa)
ob: KPHT 301155Z AUTO 35004KT 1 1/2SM BR OVC003 02/02 A3020 RMK A01
cycle: 12

Station Type Date Time Source
KPHT TAF UTC NOAA

Error!

Example: see airport list